sensor_id;sensor_type;location;lat;lon;timestamp;temperature;humidity
18777;DHT22;9517;51.174;4.160;2023-09-08T00:00:52;22.90;99.90
18777;DHT22;9517;51.174;4.160;2023-09-08T00:03:21;22.90;99.90
18777;DHT22;9517;51.174;4.160;2023-09-08T00:05:48;23.00;99.90
18777;DHT22;9517;51.174;4.160;2023-09-08T00:08:15;22.90;99.90
18777;DHT22;9517;51.174;4.160;2023-09-08T00:10:42;22.90;99.90
18777;DHT22;9517;51.174;4.160;2023-09-08T00:13:10;22.80;99.90
18777;DHT22;9517;51.174;4.160;2023-09-08T00:15:38;22.80;99.90
18777;DHT22;9517;51.174;4.160;2023-09-08T00:18:05;22.80;99.90
18777;DHT22;9517;51.174;4.160;2023-09-08T00:20:32;22.90;99.90
18777;DHT22;9517;51.174;4.160;2023-09-08T00:22:58;22.80;99.90
18777;DHT22;9517;51.174;4.160;2023-09-08T00:25:25;22.80;99.90
18777;DHT22;9517;51.174;4.160;2023-09-08T00:27:52;22.80;99.90
18777;DHT22;9517;51.174;4.160;2023-09-08T00:30:20;22.70;99.90
18777;DHT22;9517;51.174;4.160;2023-09-08T00:32:48;22.70;99.90
18777;DHT22;9517;51.174;4.160;2023-09-08T00:35:15;22.70;99.90
18777;DHT22;9517;51.174;4.160;2023-09-08T00:37:43;22.70;99.90
18777;DHT22;9517;51.174;4.160;2023-09-08T00:40:10;22.70;99.90
18777;DHT22;9517;51.174;4.160;2023-09-08T00:42:37;22.70;99.90
18777;DHT22;9517;51.174;4.160;2023-09-08T00:45:05;22.70;99.90
18777;DHT22;9517;51.174;4.160;2023-09-08T00:47:33;22.70;99.90
18777;DHT22;9517;51.174;4.160;2023-09-08T00:50:02;22.60;99.90
18777;DHT22;9517;51.174;4.160;2023-09-08T00:52:30;22.50;99.90
18777;DHT22;9517;51.174;4.160;2023-09-08T00:54:59;22.50;99.90
18777;DHT22;9517;51.174;4.160;2023-09-08T00:57:26;22.50;99.90
18777;DHT22;9517;51.174;4.160;2023-09-08T00:59:54;22.50;99.90
18777;DHT22;9517;51.174;4.160;2023-09-08T01:02:21;22.40;99.90
18777;DHT22;9517;51.174;4.160;2023-09-08T01:04:49;22.40;99.90
18777;DHT22;9517;51.174;4.160;2023-09-08T01:07:19;22.30;99.90
18777;DHT22;9517;51.174;4.160;2023-09-08T01:09:47;22.30;99.90
18777;DHT22;9517;51.174;4.160;2023-09-08T01:12:15;22.40;99.90
18777;DHT22;9517;51.174;4.160;2023-09-08T01:14:43;22.30;99.90
18777;DHT22;9517;51.174;4.160;2023-09-08T01:17:10;22.30;99.90
18777;DHT22;9517;51.174;4.160;2023-09-08T01:19:38;22.30;99.90
18777;DHT22;9517;51.174;4.160;2023-09-08T01:22:33;22.30;99.90
18777;DHT22;9517;51.174;4.160;2023-09-08T01:25:12;22.30;99.90
18777;DHT22;9517;51.174;4.160;2023-09-08T01:27:46;22.30;99.90
18777;DHT22;9517;51.174;4.160;2023-09-08T01:30:14;22.30;99.90
18777;DHT22;9517;51.174;4.160;2023-09-08T01:32:43;22.20;99.90
18777;DHT22;9517;51.174;4.160;2023-09-08T01:35:11;22.20;99.90
18777;DHT22;9517;51.174;4.160;2023-09-08T01:37:42;22.20;99.90
18777;DHT22;9517;51.174;4.160;2023-09-08T01:40:11;22.10;99.90
18777;DHT22;9517;51.174;4.160;2023-09-08T01:42:39;22.10;99.90
18777;DHT22;9517;51.174;4.160;2023-09-08T01:45:07;22.00;99.90
18777;DHT22;9517;51.174;4.160;2023-09-08T01:47:34;22.10;99.90
18777;DHT22;9517;51.174;4.160;2023-09-08T01:50:02;22.00;99.90
18777;DHT22;9517;51.174;4.160;2023-09-08T01:52:29;22.00;99.90
18777;DHT22;9517;51.174;4.160;2023-09-08T01:54:56;21.90;99.90
18777;DHT22;9517;51.174;4.160;2023-09-08T01:57:25;21.90;99.90
18777;DHT22;9517;51.174;4.160;2023-09-08T01:59:52;21.90;99.90
18777;DHT22;9517;51.174;4.160;2023-09-08T02:02:19;21.80;99.90
18777;DHT22;9517;51.174;4.160;2023-09-08T02:04:47;21.80;99.90
18777;DHT22;9517;51.174;4.160;2023-09-08T02:07:14;21.70;99.90
18777;DHT22;9517;51.174;4.160;2023-09-08T02:09:41;21.50;99.90
18777;DHT22;9517;51.174;4.160;2023-09-08T02:12:09;21.50;99.90
18777;DHT22;9517;51.174;4.160;2023-09-08T02:14:37;21.40;99.90
18777;DHT22;9517;51.174;4.160;2023-09-08T02:17:04;21.30;99.90
18777;DHT22;9517;51.174;4.160;2023-09-08T02:19:32;21.30;99.90
18777;DHT22;9517;51.174;4.160;2023-09-08T02:21:59;21.20;99.90
18777;DHT22;9517;51.174;4.160;2023-09-08T02:24:26;21.20;99.90
18777;DHT22;9517;51.174;4.160;2023-09-08T02:26:54;21.20;99.90
18777;DHT22;9517;51.174;4.160;2023-09-08T02:29:21;21.20;99.90
18777;DHT22;9517;51.174;4.160;2023-09-08T02:31:50;21.10;99.90
18777;DHT22;9517;51.174;4.160;2023-09-08T02:34:18;21.10;99.90
18777;DHT22;9517;51.174;4.160;2023-09-08T02:36:45;21.10;99.90
18777;DHT22;9517;51.174;4.160;2023-09-08T02:39:13;21.10;99.90
18777;DHT22;9517;51.174;4.160;2023-09-08T02:41:40;21.00;99.90
18777;DHT22;9517;51.174;4.160;2023-09-08T02:44:08;21.00;99.90
18777;DHT22;9517;51.174;4.160;2023-09-08T02:46:35;20.90;99.90
18777;DHT22;9517;51.174;4.160;2023-09-08T02:49:03;20.80;99.90
18777;DHT22;9517;51.174;4.160;2023-09-08T02:51:30;20.80;99.90
18777;DHT22;9517;51.174;4.160;2023-09-08T02:53:58;20.80;99.90
18777;DHT22;9517;51.174;4.160;2023-09-08T02:56:25;20.80;99.90
18777;DHT22;9517;51.174;4.160;2023-09-08T02:58:52;20.70;99.90
18777;DHT22;9517;51.174;4.160;2023-09-08T03:01:19;20.80;99.90
18777;DHT22;9517;51.174;4.160;2023-09-08T03:03:46;20.80;99.90
18777;DHT22;9517;51.174;4.160;2023-09-08T03:06:17;20.70;99.90
18777;DHT22;9517;51.174;4.160;2023-09-08T03:08:44;20.60;99.90
18777;DHT22;9517;51.174;4.160;2023-09-08T03:11:12;20.50;99.90
18777;DHT22;9517;51.174;4.160;2023-09-08T03:13:39;20.50;99.90
18777;DHT22;9517;51.174;4.160;2023-09-08T03:16:08;20.40;99.90
18777;DHT22;9517;51.174;4.160;2023-09-08T03:18:36;20.40;99.90
18777;DHT22;9517;51.174;4.160;2023-09-08T03:21:04;20.30;99.90
18777;DHT22;9517;51.174;4.160;2023-09-08T03:23:38;20.30;99.90
18777;DHT22;9517;51.174;4.160;2023-09-08T03:26:05;20.20;99.90
18777;DHT22;9517;51.174;4.160;2023-09-08T03:28:33;20.20;99.90
18777;DHT22;9517;51.174;4.160;2023-09-08T03:31:01;20.20;99.90
18777;DHT22;9517;51.174;4.160;2023-09-08T03:33:28;20.30;99.90
18777;DHT22;9517;51.174;4.160;2023-09-08T03:35:55;20.30;99.90
18777;DHT22;9517;51.174;4.160;2023-09-08T03:38:23;20.20;99.90
18777;DHT22;9517;51.174;4.160;2023-09-08T03:40:52;20.20;99.90
18777;DHT22;9517;51.174;4.160;2023-09-08T03:43:19;20.20;99.90
18777;DHT22;9517;51.174;4.160;2023-09-08T03:45:46;20.20;99.90
18777;DHT22;9517;51.174;4.160;2023-09-08T03:48:14;20.10;99.90
18777;DHT22;9517;51.174;4.160;2023-09-08T03:50:41;20.00;99.90
18777;DHT22;9517;51.174;4.160;2023-09-08T03:53:11;20.00;99.90
18777;DHT22;9517;51.174;4.160;2023-09-08T03:55:38;19.90;99.90
18777;DHT22;9517;51.174;4.160;2023-09-08T03:58:07;19.90;99.90
18777;DHT22;9517;51.174;4.160;2023-09-08T04:00:34;19.80;99.90
18777;DHT22;9517;51.174;4.160;2023-09-08T04:03:02;19.80;99.90
18777;DHT22;9517;51.174;4.160;2023-09-08T04:05:30;19.80;99.90
18777;DHT22;9517;51.174;4.160;2023-09-08T04:07:57;19.70;99.90
18777;DHT22;9517;51.174;4.160;2023-09-08T04:10:37;19.70;99.90
18777;DHT22;9517;51.174;4.160;2023-09-08T04:13:04;19.70;99.90
18777;DHT22;9517;51.174;4.160;2023-09-08T04:15:33;19.60;99.90
18777;DHT22;9517;51.174;4.160;2023-09-08T04:18:02;19.60;99.90
18777;DHT22;9517;51.174;4.160;2023-09-08T04:20:49;19.60;99.90
18777;DHT22;9517;51.174;4.160;2023-09-08T04:23:36;19.60;99.90
18777;DHT22;9517;51.174;4.160;2023-09-08T04:26:09;19.50;99.90
18777;DHT22;9517;51.174;4.160;2023-09-08T04:28:38;19.50;99.90
18777;DHT22;9517;51.174;4.160;2023-09-08T04:31:16;19.50;99.90
18777;DHT22;9517;51.174;4.160;2023-09-08T04:33:43;19.50;99.90
18777;DHT22;9517;51.174;4.160;2023-09-08T04:36:11;19.40;99.90
18777;DHT22;9517;51.174;4.160;2023-09-08T04:38:38;19.50;99.90
18777;DHT22;9517;51.174;4.160;2023-09-08T04:41:07;19.40;99.90
18777;DHT22;9517;51.174;4.160;2023-09-08T04:43:34;19.50;99.90
18777;DHT22;9517;51.174;4.160;2023-09-08T04:46:01;19.50;99.90
18777;DHT22;9517;51.174;4.160;2023-09-08T04:48:30;19.50;99.90
18777;DHT22;9517;51.174;4.160;2023-09-08T04:50:57;19.40;99.90
18777;DHT22;9517;51.174;4.160;2023-09-08T04:53:24;19.40;99.90
18777;DHT22;9517;51.174;4.160;2023-09-08T04:55:51;19.40;99.90
18777;DHT22;9517;51.174;4.160;2023-09-08T04:58:19;19.30;99.90
18777;DHT22;9517;51.174;4.160;2023-09-08T05:00:46;19.30;99.90
18777;DHT22;9517;51.174;4.160;2023-09-08T05:03:13;19.40;99.90
18777;DHT22;9517;51.174;4.160;2023-09-08T05:05:41;19.40;99.90
18777;DHT22;9517;51.174;4.160;2023-09-08T05:08:08;19.30;99.90
18777;DHT22;9517;51.174;4.160;2023-09-08T05:10:35;19.30;99.90
18777;DHT22;9517;51.174;4.160;2023-09-08T05:13:02;19.20;99.90
18777;DHT22;9517;51.174;4.160;2023-09-08T05:15:29;19.20;99.90
18777;DHT22;9517;51.174;4.160;2023-09-08T05:17:56;19.30;99.90
18777;DHT22;9517;51.174;4.160;2023-09-08T05:20:24;19.30;99.90
18777;DHT22;9517;51.174;4.160;2023-09-08T05:22:52;19.30;99.90
18777;DHT22;9517;51.174;4.160;2023-09-08T05:25:19;19.30;99.90
18777;DHT22;9517;51.174;4.160;2023-09-08T05:27:46;19.30;99.90
18777;DHT22;9517;51.174;4.160;2023-09-08T05:30:16;19.30;99.90
18777;DHT22;9517;51.174;4.160;2023-09-08T05:32:43;19.30;99.90
18777;DHT22;9517;51.174;4.160;2023-09-08T05:35:10;19.40;99.90
18777;DHT22;9517;51.174;4.160;2023-09-08T05:37:37;19.40;99.90
18777;DHT22;9517;51.174;4.160;2023-09-08T05:40:06;19.40;99.90
18777;DHT22;9517;51.174;4.160;2023-09-08T05:42:34;19.50;99.90
18777;DHT22;9517;51.174;4.160;2023-09-08T05:45:01;19.50;99.90
18777;DHT22;9517;51.174;4.160;2023-09-08T05:47:28;19.50;99.90
18777;DHT22;9517;51.174;4.160;2023-09-08T05:49:55;19.60;99.90
18777;DHT22;9517;51.174;4.160;2023-09-08T05:52:22;19.60;99.90
18777;DHT22;9517;51.174;4.160;2023-09-08T05:54:48;19.70;99.90
18777;DHT22;9517;51.174;4.160;2023-09-08T05:57:17;19.90;99.90
18777;DHT22;9517;51.174;4.160;2023-09-08T05:59:44;20.00;99.90
18777;DHT22;9517;51.174;4.160;2023-09-08T06:02:11;20.10;99.90
18777;DHT22;9517;51.174;4.160;2023-09-08T06:04:38;20.20;99.90
18777;DHT22;9517;51.174;4.160;2023-09-08T06:07:05;20.30;99.90
18777;DHT22;9517;51.174;4.160;2023-09-08T06:09:32;20.40;99.90
18777;DHT22;9517;51.174;4.160;2023-09-08T06:11:59;20.60;99.90
18777;DHT22;9517;51.174;4.160;2023-09-08T06:14:28;20.70;99.90
18777;DHT22;9517;51.174;4.160;2023-09-08T06:16:55;20.80;99.90
18777;DHT22;9517;51.174;4.160;2023-09-08T06:19:22;20.90;99.90
18777;DHT22;9517;51.174;4.160;2023-09-08T06:21:49;21.10;99.90
18777;DHT22;9517;51.174;4.160;2023-09-08T06:24:16;21.20;99.90
18777;DHT22;9517;51.174;4.160;2023-09-08T06:26:45;21.20;99.90
18777;DHT22;9517;51.174;4.160;2023-09-08T06:29:12;21.40;99.90
18777;DHT22;9517;51.174;4.160;2023-09-08T06:31:40;21.50;99.90
18777;DHT22;9517;51.174;4.160;2023-09-08T06:34:07;21.60;99.90
18777;DHT22;9517;51.174;4.160;2023-09-08T06:36:34;21.80;99.90
18777;DHT22;9517;51.174;4.160;2023-09-08T06:39:02;21.90;99.90
18777;DHT22;9517;51.174;4.160;2023-09-08T06:41:29;22.00;99.90
18777;DHT22;9517;51.174;4.160;2023-09-08T06:43:56;22.10;99.90
18777;DHT22;9517;51.174;4.160;2023-09-08T06:46:23;22.20;99.90
18777;DHT22;9517;51.174;4.160;2023-09-08T06:48:52;22.30;99.90
18777;DHT22;9517;51.174;4.160;2023-09-08T06:51:18;22.40;99.90
18777;DHT22;9517;51.174;4.160;2023-09-08T06:53:54;22.60;99.90
18777;DHT22;9517;51.174;4.160;2023-09-08T06:56:21;22.70;99.90
18777;DHT22;9517;51.174;4.160;2023-09-08T06:58:48;22.70;99.90
18777;DHT22;9517;51.174;4.160;2023-09-08T07:01:15;22.80;99.90
18777;DHT22;9517;51.174;4.160;2023-09-08T07:03:43;22.90;99.90
18777;DHT22;9517;51.174;4.160;2023-09-08T07:06:12;23.10;99.90
18777;DHT22;9517;51.174;4.160;2023-09-08T07:08:39;23.20;99.90
18777;DHT22;9517;51.174;4.160;2023-09-08T07:11:06;23.40;99.90
18777;DHT22;9517;51.174;4.160;2023-09-08T07:13:33;23.60;99.90
18777;DHT22;9517;51.174;4.160;2023-09-08T07:16:00;23.60;99.90
18777;DHT22;9517;51.174;4.160;2023-09-08T07:18:27;23.70;99.90
18777;DHT22;9517;51.174;4.160;2023-09-08T07:20:54;23.80;99.90
18777;DHT22;9517;51.174;4.160;2023-09-08T07:23:23;23.80;99.90
18777;DHT22;9517;51.174;4.160;2023-09-08T07:25:50;24.00;99.90
18777;DHT22;9517;51.174;4.160;2023-09-08T07:28:17;24.30;99.90
18777;DHT22;9517;51.174;4.160;2023-09-08T07:30:44;24.20;99.90
18777;DHT22;9517;51.174;4.160;2023-09-08T07:33:11;24.30;99.90
18777;DHT22;9517;51.174;4.160;2023-09-08T07:35:39;24.50;99.90
18777;DHT22;9517;51.174;4.160;2023-09-08T07:38:07;24.70;99.90
18777;DHT22;9517;51.174;4.160;2023-09-08T07:40:36;24.90;99.90
18777;DHT22;9517;51.174;4.160;2023-09-08T07:43:06;24.90;99.90
18777;DHT22;9517;51.174;4.160;2023-09-08T07:45:33;24.90;99.90
18777;DHT22;9517;51.174;4.160;2023-09-08T07:48:01;24.80;99.90
18777;DHT22;9517;51.174;4.160;2023-09-08T07:50:29;24.80;99.90
18777;DHT22;9517;51.174;4.160;2023-09-08T07:52:57;25.00;99.90
18777;DHT22;9517;51.174;4.160;2023-09-08T07:55:24;25.10;99.90
18777;DHT22;9517;51.174;4.160;2023-09-08T07:57:55;25.30;99.90
18777;DHT22;9517;51.174;4.160;2023-09-08T08:00:23;25.40;99.90
18777;DHT22;9517;51.174;4.160;2023-09-08T08:02:53;25.60;99.90
18777;DHT22;9517;51.174;4.160;2023-09-08T08:05:21;25.80;99.90
18777;DHT22;9517;51.174;4.160;2023-09-08T08:07:49;26.10;99.90
18777;DHT22;9517;51.174;4.160;2023-09-08T08:10:16;26.20;99.90
18777;DHT22;9517;51.174;4.160;2023-09-08T08:12:44;26.20;99.90
18777;DHT22;9517;51.174;4.160;2023-09-08T08:15:12;26.30;99.90
18777;DHT22;9517;51.174;4.160;2023-09-08T08:17:40;26.50;99.90
18777;DHT22;9517;51.174;4.160;2023-09-08T08:20:09;26.70;99.90
18777;DHT22;9517;51.174;4.160;2023-09-08T08:22:42;26.80;99.90
18777;DHT22;9517;51.174;4.160;2023-09-08T08:25:09;27.10;99.90
18777;DHT22;9517;51.174;4.160;2023-09-08T08:27:36;27.40;99.90
18777;DHT22;9517;51.174;4.160;2023-09-08T08:30:05;27.30;99.90
18777;DHT22;9517;51.174;4.160;2023-09-08T08:32:33;27.30;99.90
18777;DHT22;9517;51.174;4.160;2023-09-08T08:35:01;27.20;99.90
18777;DHT22;9517;51.174;4.160;2023-09-08T08:37:29;27.30;99.90
18777;DHT22;9517;51.174;4.160;2023-09-08T08:39:56;27.30;99.90
18777;DHT22;9517;51.174;4.160;2023-09-08T08:42:23;27.50;99.90
18777;DHT22;9517;51.174;4.160;2023-09-08T08:44:58;27.70;99.90
18777;DHT22;9517;51.174;4.160;2023-09-08T08:47:26;28.10;99.90
18777;DHT22;9517;51.174;4.160;2023-09-08T08:49:56;28.20;99.90
18777;DHT22;9517;51.174;4.160;2023-09-08T08:52:24;28.10;99.90
18777;DHT22;9517;51.174;4.160;2023-09-08T08:54:53;28.30;99.90
18777;DHT22;9517;51.174;4.160;2023-09-08T08:57:20;28.10;99.90
18777;DHT22;9517;51.174;4.160;2023-09-08T08:59:49;27.90;99.90
18777;DHT22;9517;51.174;4.160;2023-09-08T09:02:18;27.90;99.90
18777;DHT22;9517;51.174;4.160;2023-09-08T09:04:46;28.20;99.90
18777;DHT22;9517;51.174;4.160;2023-09-08T09:07:15;28.40;99.90
18777;DHT22;9517;51.174;4.160;2023-09-08T09:09:45;28.50;99.90
18777;DHT22;9517;51.174;4.160;2023-09-08T09:12:12;28.60;99.90
18777;DHT22;9517;51.174;4.160;2023-09-08T09:14:45;28.80;99.90
18777;DHT22;9517;51.174;4.160;2023-09-08T09:17:13;29.00;99.90
18777;DHT22;9517;51.174;4.160;2023-09-08T09:19:41;29.10;99.90
18777;DHT22;9517;51.174;4.160;2023-09-08T09:22:08;29.30;99.90
18777;DHT22;9517;51.174;4.160;2023-09-08T09:24:38;29.30;99.90
18777;DHT22;9517;51.174;4.160;2023-09-08T09:27:07;29.40;99.90
18777;DHT22;9517;51.174;4.160;2023-09-08T09:29:40;29.60;99.90
18777;DHT22;9517;51.174;4.160;2023-09-08T09:32:10;29.80;99.90
18777;DHT22;9517;51.174;4.160;2023-09-08T09:34:47;30.10;99.90
18777;DHT22;9517;51.174;4.160;2023-09-08T09:37:15;30.30;99.90
18777;DHT22;9517;51.174;4.160;2023-09-08T09:39:48;30.30;99.90
18777;DHT22;9517;51.174;4.160;2023-09-08T09:42:16;30.20;99.90
18777;DHT22;9517;51.174;4.160;2023-09-08T09:44:45;30.30;99.90
18777;DHT22;9517;51.174;4.160;2023-09-08T09:47:13;30.80;99.90
18777;DHT22;9517;51.174;4.160;2023-09-08T09:49:45;31.60;99.90
18777;DHT22;9517;51.174;4.160;2023-09-08T09:52:13;31.80;99.90
18777;DHT22;9517;51.174;4.160;2023-09-08T09:54:45;31.60;99.90
18777;DHT22;9517;51.174;4.160;2023-09-08T09:57:13;31.90;99.90
18777;DHT22;9517;51.174;4.160;2023-09-08T09:59:47;32.20;99.90
18777;DHT22;9517;51.174;4.160;2023-09-08T10:02:17;32.50;99.90
18777;DHT22;9517;51.174;4.160;2023-09-08T10:04:50;32.90;99.90
18777;DHT22;9517;51.174;4.160;2023-09-08T10:07:19;32.90;99.90
18777;DHT22;9517;51.174;4.160;2023-09-08T10:09:48;33.30;99.90
18777;DHT22;9517;51.174;4.160;2023-09-08T10:12:16;33.90;99.90
18777;DHT22;9517;51.174;4.160;2023-09-08T10:14:45;34.00;99.90
18777;DHT22;9517;51.174;4.160;2023-09-08T10:17:18;34.10;99.90
18777;DHT22;9517;51.174;4.160;2023-09-08T10:19:51;33.90;99.90
18777;DHT22;9517;51.174;4.160;2023-09-08T10:22:25;34.20;99.90
18777;DHT22;9517;51.174;4.160;2023-09-08T10:24:55;34.40;99.90
18777;DHT22;9517;51.174;4.160;2023-09-08T10:27:27;34.40;99.90
18777;DHT22;9517;51.174;4.160;2023-09-08T10:29:54;34.90;99.90
18777;DHT22;9517;51.174;4.160;2023-09-08T10:32:22;35.20;99.90
18777;DHT22;9517;51.174;4.160;2023-09-08T10:34:50;35.30;99.90
18777;DHT22;9517;51.174;4.160;2023-09-08T10:37:20;35.70;99.90
18777;DHT22;9517;51.174;4.160;2023-09-08T10:39:48;36.00;99.90
18777;DHT22;9517;51.174;4.160;2023-09-08T10:42:24;36.50;99.90
18777;DHT22;9517;51.174;4.160;2023-09-08T10:45:01;37.30;99.90
18777;DHT22;9517;51.174;4.160;2023-09-08T10:47:39;37.30;99.90
18777;DHT22;9517;51.174;4.160;2023-09-08T10:50:16;37.20;99.90
18777;DHT22;9517;51.174;4.160;2023-09-08T10:52:43;38.00;99.90
18777;DHT22;9517;51.174;4.160;2023-09-08T10:55:11;38.20;99.90
18777;DHT22;9517;51.174;4.160;2023-09-08T10:57:45;38.20;99.90
18777;DHT22;9517;51.174;4.160;2023-09-08T11:00:18;37.90;99.90
18777;DHT22;9517;51.174;4.160;2023-09-08T11:02:49;38.30;99.90
18777;DHT22;9517;51.174;4.160;2023-09-08T11:05:16;39.20;99.90
18777;DHT22;9517;51.174;4.160;2023-09-08T11:07:47;40.60;99.90
18777;DHT22;9517;51.174;4.160;2023-09-08T11:10:15;41.10;99.90
18777;DHT22;9517;51.174;4.160;2023-09-08T11:12:44;41.90;98.10
18777;DHT22;9517;51.174;4.160;2023-09-08T11:15:11;40.90;97.20
18777;DHT22;9517;51.174;4.160;2023-09-08T11:17:38;41.10;98.30
18777;DHT22;9517;51.174;4.160;2023-09-08T11:20:08;41.90;96.00
18777;DHT22;9517;51.174;4.160;2023-09-08T11:22:37;42.30;95.40
18777;DHT22;9517;51.174;4.160;2023-09-08T11:25:07;42.70;92.80
18777;DHT22;9517;51.174;4.160;2023-09-08T11:27:34;42.80;93.20
18777;DHT22;9517;51.174;4.160;2023-09-08T11:30:04;43.40;93.10
18777;DHT22;9517;51.174;4.160;2023-09-08T11:32:32;43.80;91.20
18777;DHT22;9517;51.174;4.160;2023-09-08T11:35:03;44.50;90.00
18777;DHT22;9517;51.174;4.160;2023-09-08T11:37:35;43.90;86.70
18777;DHT22;9517;51.174;4.160;2023-09-08T11:40:03;43.90;89.90
18777;DHT22;9517;51.174;4.160;2023-09-08T11:42:35;43.00;84.60
18777;DHT22;9517;51.174;4.160;2023-09-08T11:45:04;43.60;90.50
18777;DHT22;9517;51.174;4.160;2023-09-08T11:47:33;44.40;85.40
18777;DHT22;9517;51.174;4.160;2023-09-08T11:50:01;43.00;83.40
18777;DHT22;9517;51.174;4.160;2023-09-08T11:52:29;41.80;86.50
18777;DHT22;9517;51.174;4.160;2023-09-08T11:54:57;41.50;90.20
18777;DHT22;9517;51.174;4.160;2023-09-08T11:57:24;42.10;91.00
18777;DHT22;9517;51.174;4.160;2023-09-08T11:59:52;43.10;90.40
18777;DHT22;9517;51.174;4.160;2023-09-08T12:02:20;44.20;84.40
18777;DHT22;9517;51.174;4.160;2023-09-08T12:04:48;45.10;87.80
18777;DHT22;9517;51.174;4.160;2023-09-08T12:07:15;45.40;81.10
18777;DHT22;9517;51.174;4.160;2023-09-08T12:09:45;44.40;83.50
18777;DHT22;9517;51.174;4.160;2023-09-08T12:12:12;44.40;78.70
18777;DHT22;9517;51.174;4.160;2023-09-08T12:14:42;42.50;81.00
18777;DHT22;9517;51.174;4.160;2023-09-08T12:17:10;41.20;84.00
18777;DHT22;9517;51.174;4.160;2023-09-08T12:19:42;40.40;86.20
18777;DHT22;9517;51.174;4.160;2023-09-08T12:22:09;41.10;85.40
18777;DHT22;9517;51.174;4.160;2023-09-08T12:24:47;41.00;85.80
18777;DHT22;9517;51.174;4.160;2023-09-08T12:27:15;41.90;84.40
18777;DHT22;9517;51.174;4.160;2023-09-08T12:29:52;42.40;83.60
18777;DHT22;9517;51.174;4.160;2023-09-08T12:32:19;43.00;87.00
18777;DHT22;9517;51.174;4.160;2023-09-08T12:34:48;42.40;85.60
18777;DHT22;9517;51.174;4.160;2023-09-08T12:37:19;41.90;85.10
18777;DHT22;9517;51.174;4.160;2023-09-08T12:39:47;40.50;86.30
18777;DHT22;9517;51.174;4.160;2023-09-08T12:42:14;40.80;86.20
18777;DHT22;9517;51.174;4.160;2023-09-08T12:44:41;41.10;86.20
18777;DHT22;9517;51.174;4.160;2023-09-08T12:47:09;40.90;83.50
18777;DHT22;9517;51.174;4.160;2023-09-08T12:49:36;40.10;87.50
18777;DHT22;9517;51.174;4.160;2023-09-08T12:52:06;40.10;89.80
18777;DHT22;9517;51.174;4.160;2023-09-08T12:54:33;41.60;90.10
18777;DHT22;9517;51.174;4.160;2023-09-08T12:57:00;42.50;85.50
18777;DHT22;9517;51.174;4.160;2023-09-08T12:59:27;42.50;87.40
18777;DHT22;9517;51.174;4.160;2023-09-08T13:01:55;42.40;83.00
18777;DHT22;9517;51.174;4.160;2023-09-08T13:04:23;42.00;86.60
18777;DHT22;9517;51.174;4.160;2023-09-08T13:06:51;42.00;85.50
18777;DHT22;9517;51.174;4.160;2023-09-08T13:09:21;42.70;87.40
18777;DHT22;9517;51.174;4.160;2023-09-08T13:11:48;42.50;84.60
18777;DHT22;9517;51.174;4.160;2023-09-08T13:14:17;41.90;85.30
18777;DHT22;9517;51.174;4.160;2023-09-08T13:16:44;42.20;85.90
18777;DHT22;9517;51.174;4.160;2023-09-08T13:19:11;42.90;83.40
18777;DHT22;9517;51.174;4.160;2023-09-08T13:21:38;41.60;85.20
18777;DHT22;9517;51.174;4.160;2023-09-08T13:24:06;41.20;86.90
18777;DHT22;9517;51.174;4.160;2023-09-08T13:26:35;41.10;85.30
18777;DHT22;9517;51.174;4.160;2023-09-08T13:29:02;41.60;84.90
18777;DHT22;9517;51.174;4.160;2023-09-08T13:31:29;40.60;86.20
18777;DHT22;9517;51.174;4.160;2023-09-08T13:33:56;40.00;87.50
18777;DHT22;9517;51.174;4.160;2023-09-08T13:36:23;39.80;88.30
18777;DHT22;9517;51.174;4.160;2023-09-08T13:38:51;40.60;90.00
18777;DHT22;9517;51.174;4.160;2023-09-08T13:41:18;40.10;87.00
18777;DHT22;9517;51.174;4.160;2023-09-08T13:43:46;40.20;87.90
18777;DHT22;9517;51.174;4.160;2023-09-08T13:46:17;40.60;90.20
18777;DHT22;9517;51.174;4.160;2023-09-08T13:48:44;40.00;88.20
18777;DHT22;9517;51.174;4.160;2023-09-08T13:51:11;39.40;90.30
18777;DHT22;9517;51.174;4.160;2023-09-08T13:53:39;38.40;89.80
18777;DHT22;9517;51.174;4.160;2023-09-08T13:56:06;39.30;91.10
18777;DHT22;9517;51.174;4.160;2023-09-08T13:58:33;39.90;87.00
18777;DHT22;9517;51.174;4.160;2023-09-08T14:01:02;39.70;86.80
18777;DHT22;9517;51.174;4.160;2023-09-08T14:03:29;39.00;86.50
18777;DHT22;9517;51.174;4.160;2023-09-08T14:05:56;38.40;90.30
18777;DHT22;9517;51.174;4.160;2023-09-08T14:08:23;39.00;86.70
18777;DHT22;9517;51.174;4.160;2023-09-08T14:10:50;39.80;88.50
18777;DHT22;9517;51.174;4.160;2023-09-08T14:13:19;39.60;87.10
18777;DHT22;9517;51.174;4.160;2023-09-08T14:15:46;39.10;89.00
18777;DHT22;9517;51.174;4.160;2023-09-08T14:18:14;39.30;88.90
18777;DHT22;9517;51.174;4.160;2023-09-08T14:20:42;39.20;89.50
18777;DHT22;9517;51.174;4.160;2023-09-08T14:23:13;40.10;88.40
18777;DHT22;9517;51.174;4.160;2023-09-08T14:25:40;39.50;88.00
18777;DHT22;9517;51.174;4.160;2023-09-08T14:28:07;39.80;89.90
18777;DHT22;9517;51.174;4.160;2023-09-08T14:30:34;39.90;89.70
18777;DHT22;9517;51.174;4.160;2023-09-08T14:33:02;38.80;86.00
18777;DHT22;9517;51.174;4.160;2023-09-08T14:35:30;38.70;85.00
18777;DHT22;9517;51.174;4.160;2023-09-08T14:37:58;38.20;85.90
18777;DHT22;9517;51.174;4.160;2023-09-08T14:40:25;37.80;87.80
18777;DHT22;9517;51.174;4.160;2023-09-08T14:42:52;37.70;86.90
18777;DHT22;9517;51.174;4.160;2023-09-08T14:45:19;37.90;86.90
18777;DHT22;9517;51.174;4.160;2023-09-08T14:47:46;37.70;84.00
18777;DHT22;9517;51.174;4.160;2023-09-08T14:50:13;37.30;84.70
18777;DHT22;9517;51.174;4.160;2023-09-08T14:52:42;37.20;84.80
18777;DHT22;9517;51.174;4.160;2023-09-08T14:55:09;36.90;85.00
18777;DHT22;9517;51.174;4.160;2023-09-08T14:57:36;36.90;87.00
18777;DHT22;9517;51.174;4.160;2023-09-08T15:00:04;36.90;85.70
18777;DHT22;9517;51.174;4.160;2023-09-08T15:02:32;37.40;84.70
18777;DHT22;9517;51.174;4.160;2023-09-08T15:04:59;37.50;86.70
18777;DHT22;9517;51.174;4.160;2023-09-08T15:07:26;37.60;85.70
18777;DHT22;9517;51.174;4.160;2023-09-08T15:09:54;38.00;85.00
18777;DHT22;9517;51.174;4.160;2023-09-08T15:12:21;38.00;85.00
18777;DHT22;9517;51.174;4.160;2023-09-08T15:14:48;38.20;83.20
18777;DHT22;9517;51.174;4.160;2023-09-08T15:17:15;38.30;83.90
18777;DHT22;9517;51.174;4.160;2023-09-08T15:19:43;38.10;82.50
18777;DHT22;9517;51.174;4.160;2023-09-08T15:22:10;37.50;83.70
18777;DHT22;9517;51.174;4.160;2023-09-08T15:24:38;37.20;84.70
18777;DHT22;9517;51.174;4.160;2023-09-08T15:27:07;37.40;87.80
18777;DHT22;9517;51.174;4.160;2023-09-08T15:29:34;38.10;82.60
18777;DHT22;9517;51.174;4.160;2023-09-08T15:32:00;37.30;81.50
18777;DHT22;9517;51.174;4.160;2023-09-08T15:34:27;36.80;85.50
18777;DHT22;9517;51.174;4.160;2023-09-08T15:36:54;36.70;85.00
18777;DHT22;9517;51.174;4.160;2023-09-08T15:39:21;37.00;84.20
18777;DHT22;9517;51.174;4.160;2023-09-08T15:41:48;37.20;82.40
18777;DHT22;9517;51.174;4.160;2023-09-08T15:44:16;37.20;84.60
18777;DHT22;9517;51.174;4.160;2023-09-08T15:46:44;37.60;82.60
18777;DHT22;9517;51.174;4.160;2023-09-08T15:49:11;37.80;85.50
18777;DHT22;9517;51.174;4.160;2023-09-08T15:51:38;37.80;84.10